Time;durP1;ratioP1;P1;durP2;ratioP2;P2;SDS_P1;SDS_P2;PMS_P1;PMS_P2;Temp;Humidity;BMP_temperature;BMP_pressure;BME280_temperature;BME280_humidity;BME280_pressure;Samples;Min_cycle;Max_cycle;Signal;HPM_P1;HPM_P2
2023/06/01 00:00:38;;;;;;;5.47;3.90;;;17.60;99.90;;;;;;5048405;28;20622;-54
2023/06/01 00:03:03;;;;;;;5.10;4.60;;;17.70;99.90;;;;;;5051790;28;20228;-54
2023/06/01 00:05:29;;;;;;;4.60;3.53;;;17.60;99.90;;;;;;5053757;28;20451;-55
2023/06/01 00:07:55;;;;;;;4.17;3.43;;;17.60;99.90;;;;;;5047114;28;20190;-52
2023/06/01 00:10:20;;;;;;;4.67;3.60;;;17.60;99.90;;;;;;5044988;28;20185;-54
2023/06/01 00:12:46;;;;;;;4.50;4.10;;;17.60;99.90;;;;;;5044472;28;20251;-54
2023/06/01 00:15:11;;;;;;;4.20;3.80;;;17.60;99.90;;;;;;5043280;28;20193;-55
2023/06/01 00:17:37;;;;;;;5.70;4.03;;;17.60;99.90;;;;;;5042859;28;20239;-53
2023/06/01 00:20:07;;;;;;;6.43;4.40;;;17.60;99.90;;;;;;5047907;28;20189;-55
2023/06/01 00:22:38;;;;;;;6.13;4.37;;;17.50;99.90;;;;;;5044837;28;20197;-54
2023/06/01 00:25:07;;;;;;;5.30;3.87;;;17.50;99.90;;;;;;5047656;28;20479;-53
2023/06/01 00:27:33;;;;;;;4.53;4.03;;;17.40;99.90;;;;;;5048134;28;20448;-53
2023/06/01 00:30:00;;;;;;;6.00;4.03;;;17.40;99.90;;;;;;5049749;28;20493;-55
2023/06/01 00:32:25;;;;;;;6.93;4.30;;;17.40;99.90;;;;;;5049632;28;20582;-54
2023/06/01 00:34:51;;;;;;;6.57;4.60;;;17.40;99.90;;;;;;5049541;28;20457;-54
2023/06/01 00:37:16;;;;;;;4.80;4.17;;;17.30;99.90;;;;;;5049379;28;20193;-55
2023/06/01 00:39:42;;;;;;;8.40;4.13;;;17.20;99.90;;;;;;5039425;28;20611;-53
2023/06/01 00:42:08;;;;;;;5.13;4.47;;;17.20;99.90;;;;;;5050285;28;20346;-53
2023/06/01 00:44:33;;;;;;;7.07;4.20;;;17.10;99.90;;;;;;5048118;28;20195;-52
2023/06/01 00:46:59;;;;;;;5.37;4.17;;;17.10;99.90;;;;;;5048630;28;20197;-55
2023/06/01 00:49:26;;;;;;;5.13;3.90;;;17.10;99.90;;;;;;5047044;28;20220;-54
2023/06/01 00:51:52;;;;;;;5.97;4.23;;;17.10;99.90;;;;;;5049048;28;20449;-52
2023/06/01 00:54:19;;;;;;;5.70;3.93;;;17.10;99.90;;;;;;5048456;28;20485;-53
2023/06/01 00:56:45;;;;;;;4.23;3.83;;;17.00;99.90;;;;;;5046319;28;20556;-54
2023/06/01 00:59:12;;;;;;;5.10;3.73;;;17.00;99.90;;;;;;5043613;28;20926;-54
2023/06/01 01:01:37;;;;;;;6.33;4.30;;;17.10;99.90;;;;;;5046399;28;20669;-52
2023/06/01 01:04:04;;;;;;;5.80;4.13;;;17.10;99.90;;;;;;5045388;28;20483;-54
2023/06/01 01:06:45;;;;;;;5.73;3.77;;;17.00;99.90;;;;;;5049317;28;20189;-54
2023/06/01 01:09:29;;;;;;;4.60;4.20;;;16.90;99.90;;;;;;5055452;28;20497;-55
2023/06/01 01:12:00;;;;;;;5.00;3.93;;;16.80;99.90;;;;;;5049814;28;20821;-51
2023/06/01 01:14:35;;;;;;;5.27;4.40;;;16.80;99.90;;;;;;5038009;28;20546;-53
2023/06/01 01:17:17;;;;;;;4.83;4.27;;;16.70;99.90;;;;;;5042152;28;21074;-56
2023/06/01 01:19:53;;;;;;;5.73;4.27;;;16.70;99.90;;;;;;5044989;28;20554;-52
2023/06/01 01:22:26;;;;;;;5.80;4.43;;;16.60;99.90;;;;;;5045958;28;20447;-53
2023/06/01 01:25:03;;;;;;;6.00;4.90;;;16.60;99.90;;;;;;5045757;28;20607;-52
2023/06/01 01:27:47;;;;;;;4.57;4.17;;;16.60;99.90;;;;;;5052794;28;20485;-53
2023/06/01 01:30:13;;;;;;;6.40;4.30;;;16.70;99.90;;;;;;5051017;28;21063;-53
2023/06/01 01:32:40;;;;;;;5.27;4.50;;;16.60;99.90;;;;;;5041689;28;20463;-55
2023/06/01 01:35:07;;;;;;;5.47;4.10;;;16.60;99.90;;;;;;5046502;28;20463;-55
2023/06/01 01:37:34;;;;;;;8.00;4.47;;;16.50;99.90;;;;;;5047890;28;20443;-54
2023/06/01 01:39:59;;;;;;;6.03;4.10;;;16.50;99.90;;;;;;5048886;28;20469;-56
2023/06/01 01:42:26;;;;;;;4.20;3.80;;;16.40;99.90;;;;;;5056717;28;20448;-53
2023/06/01 01:44:52;;;;;;;5.00;3.77;;;16.40;99.90;;;;;;5052364;28;20192;-54
2023/06/01 01:47:27;;;;;;;5.23;4.23;;;16.40;99.90;;;;;;5052370;28;20510;-54
2023/06/01 01:49:58;;;;;;;4.30;3.73;;;16.30;99.90;;;;;;5042377;28;20172;-56
2023/06/01 01:52:33;;;;;;;6.67;4.30;;;16.30;99.90;;;;;;5047649;28;20444;-53
2023/06/01 01:55:00;;;;;;;5.40;4.63;;;16.30;99.90;;;;;;5046255;28;20490;-52
2023/06/01 01:57:29;;;;;;;12.50;4.50;;;16.20;99.90;;;;;;5045503;28;20454;-54
2023/06/01 01:59:55;;;;;;;5.47;3.90;;;16.20;99.90;;;;;;5045859;28;20477;-53
2023/06/01 02:02:22;;;;;;;5.40;3.73;;;16.00;1.00;;;;;;5035912;28;20447;-54
2023/06/01 02:04:47;;;;;;;5.43;4.27;;;16.00;1.00;;;;;;5051105;28;20488;-55
2023/06/01 02:07:13;;;;;;;6.07;3.83;;;16.00;1.00;;;;;;5049521;28;20443;-55
2023/06/01 02:09:39;;;;;;;4.50;4.10;;;16.00;1.00;;;;;;5048090;28;20192;-54
2023/06/01 02:12:06;;;;;;;6.20;3.90;;;16.00;1.00;;;;;;5050969;28;20180;-52
2023/06/01 02:14:32;;;;;;;5.93;4.20;;;16.00;1.00;;;;;;5051168;28;20809;-56
2023/06/01 02:16:57;;;;;;;6.30;4.37;;;15.90;1.00;;;;;;5050865;28;20443;-53
2023/06/01 02:19:23;;;;;;;5.07;4.10;;;15.80;1.00;;;;;;5053001;28;20263;-54
2023/06/01 02:21:48;;;;;;;5.00;4.23;;;15.80;1.00;;;;;;5043279;28;20198;-54
2023/06/01 02:24:14;;;;;;;5.00;4.17;;;15.80;1.00;;;;;;5045349;28;20205;-53
2023/06/01 02:26:40;;;;;;;5.47;4.93;;;15.70;1.00;;;;;;5041759;28;20185;-51
2023/06/01 02:29:05;;;;;;;6.97;4.83;;;15.70;1.00;;;;;;5049130;28;20215;-55
2023/06/01 02:31:32;;;;;;;5.60;4.00;;;15.70;1.00;;;;;;5042827;28;20251;-51
2023/06/01 02:33:59;;;;;;;4.10;3.67;;;15.70;1.00;;;;;;5050264;28;20188;-54
2023/06/01 02:36:26;;;;;;;4.63;4.13;;;15.60;1.00;;;;;;5045279;28;20455;-54
2023/06/01 02:38:52;;;;;;;4.60;4.20;;;15.60;1.00;;;;;;5042841;28;20454;-53
2023/06/01 02:41:17;;;;;;;6.73;3.70;;;15.60;1.00;;;;;;5045956;28;20977;-55
2023/06/01 02:43:43;;;;;;;4.77;4.27;;;15.50;1.00;;;;;;5049762;28;20208;-52
2023/06/01 02:46:08;;;;;;;8.87;4.43;;;15.60;1.00;;;;;;5044706;28;20271;-51
2023/06/01 02:48:34;;;;;;;6.13;4.30;;;15.50;1.00;;;;;;5044897;28;20512;-53
2023/06/01 02:51:00;;;;;;;7.90;4.07;;;15.50;1.00;;;;;;5039437;28;20208;-52
2023/06/01 02:53:28;;;;;;;4.77;4.30;;;15.60;1.00;;;;;;5047338;28;20450;-53
2023/06/01 02:55:54;;;;;;;8.47;4.40;;;15.60;1.00;;;;;;5047030;28;20195;-51
2023/06/01 02:58:20;;;;;;;5.87;4.67;;;15.50;1.00;;;;;;5048574;28;20471;-54
2023/06/01 03:00:46;;;;;;;4.70;3.97;;;15.50;1.00;;;;;;5048100;28;21125;-52
2023/06/01 03:03:12;;;;;;;4.77;4.37;;;15.50;1.00;;;;;;5041599;28;20473;-55
2023/06/01 03:05:38;;;;;;;5.53;4.77;;;15.50;1.00;;;;;;5047181;28;20526;-54
2023/06/01 03:08:06;;;;;;;6.90;4.00;;;15.40;1.00;;;;;;5047847;28;21064;-54
2023/06/01 03:10:32;;;;;;;4.93;4.20;;;15.40;1.00;;;;;;5042351;28;20485;-50
2023/06/01 03:12:57;;;;;;;4.37;3.73;;;15.50;1.00;;;;;;5046309;28;20530;-53
2023/06/01 03:15:23;;;;;;;6.17;5.20;;;15.40;1.00;;;;;;5052379;28;20187;-54
2023/06/01 03:17:48;;;;;;;5.57;4.50;;;15.50;1.00;;;;;;5049280;28;20187;-52
2023/06/01 03:20:14;;;;;;;4.63;4.10;;;15.40;1.00;;;;;;5042137;28;20188;-52
2023/06/01 03:22:44;;;;;;;7.33;4.30;;;15.50;1.00;;;;;;5041601;28;20216;-54
2023/06/01 03:25:12;;;;;;;6.03;4.30;;;15.50;1.00;;;;;;5045284;28;20546;-53
2023/06/01 03:27:40;;;;;;;9.93;4.37;;;15.50;1.00;;;;;;5046254;28;20446;-53
2023/06/01 03:30:10;;;;;;;4.50;3.73;;;15.60;1.00;;;;;;5040099;28;20442;-53
2023/06/01 03:32:40;;;;;;;4.27;3.83;;;15.60;1.00;;;;;;5039414;28;20446;-54
2023/06/01 03:35:07;;;;;;;5.47;3.90;;;15.60;1.00;;;;;;5045693;28;20438;-55
2023/06/01 03:37:36;;;;;;;5.27;4.30;;;15.70;1.00;;;;;;5046552;28;20442;-53
2023/06/01 03:40:10;;;;;;;5.10;3.87;;;15.70;1.00;;;;;;5042474;28;20509;-53
2023/06/01 03:42:40;;;;;;;6.10;4.07;;;15.70;1.00;;;;;;5046314;28;20475;-53
2023/06/01 03:45:06;;;;;;;6.80;4.00;;;15.70;1.00;;;;;;5043543;28;20458;-55
2023/06/01 03:47:32;;;;;;;6.57;5.10;;;15.80;1.00;;;;;;5046209;28;20848;-52
2023/06/01 03:49:58;;;;;;;4.33;3.93;;;15.80;1.00;;;;;;5045592;28;20792;-51
2023/06/01 03:52:27;;;;;;;5.60;3.90;;;15.70;1.00;;;;;;5042834;28;20439;-53
2023/06/01 03:54:55;;;;;;;5.03;4.60;;;15.70;1.00;;;;;;5045029;28;20528;-53
2023/06/01 03:57:21;;;;;;;4.60;4.20;;;15.70;1.00;;;;;;5049459;28;20968;-53
2023/06/01 03:59:46;;;;;;;6.10;5.00;;;15.70;1.00;;;;;;5049142;28;20479;-53
2023/06/01 04:02:12;;;;;;;4.93;4.00;;;15.70;1.00;;;;;;5046517;28;20654;-55
2023/06/01 04:04:40;;;;;;;5.43;4.93;;;15.90;1.00;;;;;;5041250;28;20204;-53
2023/06/01 04:07:09;;;;;;;4.80;4.20;;;15.80;1.00;;;;;;5053106;28;20793;-53
2023/06/01 04:09:37;;;;;;;6.13;3.90;;;15.90;1.00;;;;;;5047570;28;20454;-53
2023/06/01 04:12:03;;;;;;;5.00;4.20;;;15.90;1.00;;;;;;5054907;28;20951;-54
2023/06/01 04:14:28;;;;;;;7.83;4.43;;;16.00;1.00;;;;;;5049894;28;20455;-53
2023/06/01 04:16:55;;;;;;;4.63;3.87;;;16.00;1.00;;;;;;5042960;28;20455;-54
2023/06/01 04:19:21;;;;;;;5.93;3.90;;;16.00;1.00;;;;;;5044693;28;20525;-55
2023/06/01 04:21:46;;;;;;;6.03;4.23;;;16.00;1.00;;;;;;5041400;28;20545;-54
2023/06/01 04:24:12;;;;;;;5.30;4.27;;;16.10;99.90;;;;;;5049491;28;20208;-54
2023/06/01 04:26:37;;;;;;;4.67;4.03;;;16.00;99.90;;;;;;5042635;28;20549;-52
2023/06/01 04:29:03;;;;;;;5.83;4.00;;;16.10;99.90;;;;;;5048241;28;20585;-54
2023/06/01 04:31:32;;;;;;;4.80;4.30;;;16.10;99.90;;;;;;5047042;28;20682;-54
2023/06/01 04:34:01;;;;;;;5.77;4.93;;;16.10;99.90;;;;;;5046857;28;20442;-54
2023/06/01 04:36:29;;;;;;;4.73;4.23;;;16.20;99.90;;;;;;5043216;28;20448;-53
2023/06/01 04:38:55;;;;;;;5.37;4.30;;;16.30;99.90;;;;;;5049154;28;20504;-52
2023/06/01 04:41:21;;;;;;;8.57;4.67;;;16.30;99.90;;;;;;5048573;28;20843;-56
2023/06/01 04:43:54;;;;;;;5.00;4.27;;;16.40;99.90;;;;;;5046897;28;20510;-55
2023/06/01 04:46:26;;;;;;;5.00;4.30;;;16.40;99.90;;;;;;5057436;28;20450;-54
2023/06/01 04:48:52;;;;;;;6.63;5.20;;;16.50;99.90;;;;;;5046161;28;20487;-53
2023/06/01 04:51:23;;;;;;;7.10;5.50;;;16.50;99.90;;;;;;5048315;28;20444;-54
2023/06/01 04:53:51;;;;;;;6.40;5.33;;;16.60;99.90;;;;;;5048493;28;20469;-56
2023/06/01 04:56:24;;;;;;;7.60;5.13;;;16.60;99.90;;;;;;5051052;28;20451;-55
2023/06/01 04:58:51;;;;;;;6.03;5.03;;;16.70;99.90;;;;;;5049768;28;20525;-54
2023/06/01 05:01:17;;;;;;;6.60;4.63;;;16.80;99.90;;;;;;5041855;28;20484;-55
2023/06/01 05:03:45;;;;;;;6.37;4.40;;;17.00;99.90;;;;;;5044750;28;20473;-55
2023/06/01 05:06:12;;;;;;;5.33;4.53;;;17.10;99.90;;;;;;5045262;28;20443;-53
2023/06/01 05:08:41;;;;;;;11.50;4.73;;;17.20;99.90;;;;;;5048567;28;20546;-53
2023/06/01 05:11:08;;;;;;;5.77;4.90;;;17.30;99.90;;;;;;5041814;28;20508;-50
2023/06/01 05:13:44;;;;;;;6.43;4.13;;;17.40;99.90;;;;;;5052041;28;20638;-51
2023/06/01 05:16:10;;;;;;;6.60;5.10;;;17.50;99.90;;;;;;5047248;28;20601;-53
2023/06/01 05:18:36;;;;;;;8.03;4.90;;;17.60;99.90;;;;;;5044888;28;20464;-53
2023/06/01 05:21:02;;;;;;;5.80;5.07;;;17.60;99.90;;;;;;5049324;28;20183;-54
2023/06/01 05:23:28;;;;;;;6.10;4.63;;;17.70;99.90;;;;;;5050688;28;20514;-52
2023/06/01 05:26:01;;;;;;;7.30;4.83;;;17.80;99.90;;;;;;5064974;28;20447;-56
2023/06/01 05:28:29;;;;;;;8.10;5.30;;;17.80;99.90;;;;;;5047914;28;20539;-55
2023/06/01 05:30:55;;;;;;;10.43;7.57;;;17.90;99.90;;;;;;5056576;28;20442;-56
2023/06/01 05:33:21;;;;;;;8.23;5.13;;;18.00;99.90;;;;;;5052970;28;20447;-55
2023/06/01 05:35:46;;;;;;;7.43;4.80;;;18.10;99.90;;;;;;5053874;28;20458;-52
2023/06/01 05:38:12;;;;;;;9.13;5.40;;;18.20;99.90;;;;;;5047998;28;20269;-56
2023/06/01 05:40:37;;;;;;;6.83;4.87;;;18.30;99.90;;;;;;5057497;28;20554;-56
2023/06/01 05:43:03;;;;;;;6.73;5.50;;;18.50;99.90;;;;;;5053669;28;20210;-54
2023/06/01 05:45:28;;;;;;;8.50;5.20;;;18.60;99.90;;;;;;5057791;28;20189;-53
2023/06/01 05:47:55;;;;;;;6.97;5.20;;;18.80;99.90;;;;;;5048848;28;20190;-55
2023/06/01 05:50:20;;;;;;;5.87;4.80;;;18.80;99.90;;;;;;5046796;28;20182;-51
2023/06/01 05:52:46;;;;;;;12.07;6.47;;;18.80;99.90;;;;;;5053212;28;20665;-54
2023/06/01 05:55:11;;;;;;;6.20;4.90;;;18.90;99.90;;;;;;5049341;28;20186;-53
2023/06/01 05:57:37;;;;;;;8.13;5.03;;;19.00;99.90;;;;;;5046364;28;20194;-54
2023/06/01 06:00:09;;;;;;;8.20;5.37;;;19.10;99.90;;;;;;5053803;28;20229;-52
2023/06/01 06:02:34;;;;;;;8.37;5.03;;;19.30;99.90;;;;;;5051099;28;20223;-52
2023/06/01 06:05:00;;;;;;;10.47;4.87;;;19.20;99.90;;;;;;5061609;28;20837;-55
2023/06/01 06:07:26;;;;;;;7.93;4.93;;;19.30;99.90;;;;;;5058759;28;20238;-55
2023/06/01 06:09:52;;;;;;;6.67;5.20;;;19.60;99.90;;;;;;5060435;28;20269;-54
2023/06/01 06:12:17;;;;;;;5.77;4.23;;;19.70;99.90;;;;;;5052548;28;20185;-53
2023/06/01 06:14:43;;;;;;;8.00;5.23;;;19.80;99.90;;;;;;5054256;28;20181;-54
2023/06/01 06:17:08;;;;;;;12.90;4.67;;;19.80;99.90;;;;;;5053729;28;20205;-54
2023/06/01 06:19:34;;;;;;;6.97;4.80;;;19.90;99.90;;;;;;5050770;28;20223;-53
2023/06/01 06:22:00;;;;;;;10.50;4.60;;;19.80;99.90;;;;;;5048598;28;20193;-54
2023/06/01 06:24:25;;;;;;;5.27;3.97;;;19.80;99.90;;;;;;5052078;28;20206;-56
2023/06/01 06:26:51;;;;;;;9.27;4.77;;;19.90;99.90;;;;;;5053214;28;20726;-54
2023/06/01 06:29:16;;;;;;;6.10;4.43;;;20.00;99.90;;;;;;5046294;28;20197;-52
2023/06/01 06:31:42;;;;;;;11.70;4.80;;;20.20;99.90;;;;;;5048573;28;20653;-56
2023/06/01 06:34:09;;;;;;;4.60;3.90;;;20.20;99.90;;;;;;5044877;28;20331;-55
2023/06/01 06:36:34;;;;;;;5.80;4.00;;;20.40;99.90;;;;;;5046485;28;20926;-55
2023/06/01 06:39:00;;;;;;;10.97;4.90;;;20.50;99.90;;;;;;5048024;28;20524;-56
2023/06/01 06:41:25;;;;;;;6.90;4.30;;;20.50;99.90;;;;;;5048322;28;20208;-55
2023/06/01 06:43:51;;;;;;;5.00;4.10;;;20.40;99.90;;;;;;5053614;28;20267;-53
2023/06/01 06:46:17;;;;;;;6.70;4.67;;;20.40;99.90;;;;;;5051789;28;20594;-53
2023/06/01 06:48:42;;;;;;;7.90;4.70;;;20.40;99.90;;;;;;5042687;28;20232;-52
2023/06/01 06:51:08;;;;;;;7.93;3.97;;;20.20;99.90;;;;;;5053157;28;20217;-54
2023/06/01 06:53:33;;;;;;;6.40;3.90;;;20.30;99.90;;;;;;5046473;28;20194;-53
2023/06/01 06:55:59;;;;;;;4.60;4.10;;;20.50;99.90;;;;;;5044654;28;20225;-55
2023/06/01 06:58:25;;;;;;;4.60;4.00;;;20.40;99.90;;;;;;5050013;28;20225;-55
2023/06/01 07:00:51;;;;;;;5.47;3.47;;;20.40;99.90;;;;;;5055131;28;20448;-54
2023/06/01 07:03:17;;;;;;;5.00;4.33;;;20.40;99.90;;;;;;5048357;28;20464;-54
2023/06/01 07:05:45;;;;;;;6.23;5.07;;;20.50;99.90;;;;;;5055083;28;20184;-54
2023/06/01 07:08:11;;;;;;;12.53;6.10;;;20.70;99.90;;;;;;5054192;28;20484;-55
2023/06/01 07:10:37;;;;;;;8.60;6.90;;;21.00;99.90;;;;;;5056185;28;20446;-52
2023/06/01 07:13:03;;;;;;;10.60;4.57;;;21.30;99.90;;;;;;5052475;28;20210;-53
2023/06/01 07:15:28;;;;;;;11.03;5.13;;;21.60;99.90;;;;;;5048230;28;20199;-56
2023/06/01 07:17:54;;;;;;;7.30;4.60;;;21.80;99.90;;;;;;5051185;28;20198;-54
2023/06/01 07:20:19;;;;;;;5.03;3.90;;;21.50;99.90;;;;;;5053375;28;20187;-53
2023/06/01 07:22:45;;;;;;;9.63;4.80;;;21.50;99.90;;;;;;5051626;28;20216;-54
2023/06/01 07:25:13;;;;;;;9.87;4.67;;;21.60;99.90;;;;;;5053628;28;20191;-53
2023/06/01 07:27:43;;;;;;;8.67;4.70;;;21.40;99.90;;;;;;5052020;28;20195;-55
2023/06/01 07:30:10;;;;;;;7.00;4.43;;;21.30;99.90;;;;;;5052933;28;20942;-55
2023/06/01 07:32:36;;;;;;;8.17;4.97;;;21.40;99.90;;;;;;5048896;28;20878;-56
2023/06/01 07:35:04;;;;;;;12.77;4.70;;;21.50;99.90;;;;;;5043885;28;21024;-56
2023/06/01 07:37:31;;;;;;;7.00;4.37;;;21.50;99.90;;;;;;5049421;28;20436;-54
2023/06/01 07:39:57;;;;;;;7.60;3.90;;;21.30;99.90;;;;;;5043215;28;20954;-52
2023/06/01 07:42:23;;;;;;;8.97;4.73;;;21.20;99.90;;;;;;5052157;28;20446;-56
2023/06/01 07:44:48;;;;;;;9.70;4.90;;;21.30;99.90;;;;;;5044567;28;20211;-56
2023/06/01 07:47:14;;;;;;;5.20;3.90;;;21.40;99.90;;;;;;5046006;28;20188;-54
2023/06/01 07:49:40;;;;;;;9.70;4.80;;;21.40;99.90;;;;;;5054113;28;20287;-55
2023/06/01 07:52:07;;;;;;;8.00;4.73;;;21.40;99.90;;;;;;5046722;28;20650;-53
2023/06/01 07:54:35;;;;;;;11.87;5.93;;;21.70;99.90;;;;;;5046822;28;20226;-56
2023/06/01 07:57:02;;;;;;;6.50;4.40;;;21.70;99.90;;;;;;5046279;28;20542;-53
2023/06/01 07:59:29;;;;;;;8.63;4.17;;;21.40;99.90;;;;;;5042705;28;20481;-52
2023/06/01 08:01:55;;;;;;;6.33;4.60;;;21.60;99.90;;;;;;5048213;28;20736;-56
2023/06/01 08:04:21;;;;;;;7.30;4.30;;;21.80;99.90;;;;;;5045406;28;20466;-56
2023/06/01 08:06:48;;;;;;;6.07;4.70;;;21.80;99.90;;;;;;5052912;28;20487;-54
2023/06/01 08:09:14;;;;;;;7.30;4.40;;;22.10;99.90;;;;;;5045519;28;20191;-55
2023/06/01 08:11:39;;;;;;;7.47;4.73;;;22.40;99.90;;;;;;5046244;28;20456;-53
2023/06/01 08:14:07;;;;;;;7.67;4.77;;;22.40;99.90;;;;;;5045519;28;20449;-55
2023/06/01 08:16:33;;;;;;;8.00;4.00;;;22.30;99.90;;;;;;5050357;28;20191;-56
2023/06/01 08:18:59;;;;;;;5.70;4.20;;;22.60;99.90;;;;;;5045762;28;20473;-55
2023/06/01 08:21:25;;;;;;;5.97;4.00;;;22.70;99.90;;;;;;5046554;28;20456;-55
2023/06/01 08:23:54;;;;;;;5.30;4.23;;;22.60;99.90;;;;;;5055437;28;20296;-54
2023/06/01 08:26:20;;;;;;;7.67;4.37;;;22.70;99.90;;;;;;5047286;28;20942;-53
2023/06/01 08:28:51;;;;;;;6.37;4.40;;;22.70;99.90;;;;;;5059054;28;20436;-53
2023/06/01 08:31:21;;;;;;;6.17;3.70;;;22.80;99.90;;;;;;5050874;28;21011;-55
2023/06/01 08:33:48;;;;;;;7.80;3.60;;;23.10;99.90;;;;;;5053004;28;20542;-53
2023/06/01 08:36:14;;;;;;;7.97;4.20;;;23.10;99.90;;;;;;5050476;28;21096;-52
2023/06/01 08:38:41;;;;;;;5.33;3.60;;;23.30;99.90;;;;;;5048186;28;20548;-54
2023/06/01 08:41:53;;;;;;;6.60;3.27;;;23.50;99.90;;;;;;5056413;28;20986;-56
2023/06/01 08:44:22;;;;;;;6.40;3.40;;;23.50;99.90;;;;;;5027143;28;20470;-54
2023/06/01 08:46:48;;;;;;;5.10;3.97;;;23.50;99.90;;;;;;5026456;28;20505;-55
2023/06/01 08:49:15;;;;;;;6.53;3.30;;;23.50;99.90;;;;;;5041397;28;20452;-53
2023/06/01 08:51:42;;;;;;;6.70;2.87;;;23.40;99.90;;;;;;5054804;28;20231;-53
2023/06/01 08:54:09;;;;;;;5.60;3.63;;;23.40;99.90;;;;;;5049296;28;20532;-55
2023/06/01 08:56:36;;;;;;;4.63;3.23;;;23.50;99.90;;;;;;5045137;28;20534;-53
2023/06/01 08:59:02;;;;;;;5.43;3.20;;;23.40;99.90;;;;;;5048569;28;20569;-54
2023/06/01 09:01:29;;;;;;;4.10;3.20;;;23.30;99.90;;;;;;5052862;28;20859;-53
2023/06/01 09:03:54;;;;;;;5.03;3.07;;;23.30;99.90;;;;;;5045549;28;20501;-53
2023/06/01 09:06:21;;;;;;;4.63;3.27;;;23.50;99.90;;;;;;5057379;28;20506;-54
2023/06/01 09:08:47;;;;;;;4.53;2.97;;;23.50;99.90;;;;;;5053600;28;20215;-55
2023/06/01 09:11:13;;;;;;;4.80;2.97;;;23.40;99.90;;;;;;5054254;28;20971;-55
2023/06/01 09:13:40;;;;;;;5.60;4.00;;;23.30;99.90;;;;;;5053569;28;20476;-54
2023/06/01 09:16:06;;;;;;;4.37;3.03;;;23.40;99.90;;;;;;5055461;28;20491;-53
2023/06/01 09:18:33;;;;;;;3.67;2.90;;;23.20;99.90;;;;;;5046730;28;20505;-54
2023/06/01 09:21:15;;;;;;;5.63;3.10;;;23.10;99.90;;;;;;5057574;28;20449;-54
2023/06/01 09:23:44;;;;;;;4.43;3.40;;;23.30;99.90;;;;;;5050649;28;20474;-52
2023/06/01 09:26:11;;;;;;;4.73;3.17;;;23.60;99.90;;;;;;5056601;28;20450;-54
2023/06/01 09:28:56;;;;;;;4.30;3.30;;;23.80;99.90;;;;;;5050277;28;20885;-55
2023/06/01 09:31:44;;;;;;;5.80;3.37;;;24.00;99.90;;;;;;5052410;28;20986;-53
2023/06/01 09:34:15;;;;;;;4.93;3.23;;;24.10;99.90;;;;;;5048612;28;20777;-53
2023/06/01 09:36:41;;;;;;;4.30;2.80;;;24.20;99.90;;;;;;5044786;28;20821;-54
2023/06/01 09:39:09;;;;;;;3.90;2.70;;;24.20;99.90;;;;;;5046932;28;20447;-53
2023/06/01 09:41:48;;;;;;;5.23;3.43;;;23.90;99.90;;;;;;5049916;28;20462;-53
2023/06/01 09:44:21;;;;;;;9.07;3.03;;;23.90;99.90;;;;;;5054000;28;20477;-54
2023/06/01 09:46:53;;;;;;;4.00;3.13;;;23.80;99.90;;;;;;5049262;28;20656;-54
2023/06/01 09:49:27;;;;;;;5.23;3.40;;;24.10;99.90;;;;;;5046213;28;20541;-52
2023/06/01 09:52:05;;;;;;;4.90;2.87;;;24.20;99.90;;;;;;5041180;28;20939;-53
2023/06/01 09:54:33;;;;;;;9.30;3.53;;;24.30;99.90;;;;;;5051967;28;20804;-54
2023/06/01 09:57:01;;;;;;;4.77;2.73;;;24.20;99.90;;;;;;5049983;28;20802;-54
2023/06/01 09:59:29;;;;;;;3.23;2.93;;;24.30;99.90;;;;;;5050069;28;20475;-55
2023/06/01 10:01:57;;;;;;;4.03;2.97;;;24.40;99.90;;;;;;5048814;28;20461;-54
2023/06/01 10:04:27;;;;;;;6.30;3.20;;;24.50;99.90;;;;;;5047566;28;20514;-54
2023/06/01 10:06:56;;;;;;;4.27;2.57;;;24.70;99.90;;;;;;5045398;28;20459;-54
2023/06/01 10:09:24;;;;;;;3.43;2.53;;;24.90;99.90;;;;;;5048376;28;20540;-53
2023/06/01 10:11:55;;;;;;;7.00;3.10;;;25.10;99.90;;;;;;5047521;28;20966;-55
2023/06/01 10:14:24;;;;;;;6.60;3.40;;;25.10;99.90;;;;;;5048732;28;20474;-53
2023/06/01 10:16:51;;;;;;;5.30;3.40;;;25.10;99.90;;;;;;5048079;28;20462;-54
2023/06/01 10:19:19;;;;;;;5.37;3.50;;;25.00;99.90;;;;;;5053803;28;20455;-54
2023/06/01 10:21:45;;;;;;;5.60;3.00;;;24.90;99.90;;;;;;5050744;28;20454;-53
2023/06/01 10:24:12;;;;;;;4.20;2.60;;;25.00;99.90;;;;;;5056667;28;20821;-54
2023/06/01 10:26:47;;;;;;;5.27;3.37;;;25.00;99.90;;;;;;5048584;28;21031;-54
2023/06/01 10:29:17;;;;;;;4.20;3.73;;;25.10;99.90;;;;;;5045660;28;20468;-54
2023/06/01 10:31:43;;;;;;;5.47;3.30;;;25.20;99.90;;;;;;5048763;28;20456;-54
2023/06/01 10:34:10;;;;;;;6.70;3.53;;;25.20;99.90;;;;;;5048534;28;20483;-53
2023/06/01 10:36:51;;;;;;;5.47;3.73;;;25.30;99.90;;;;;;5051410;28;20501;-56
2023/06/01 10:39:24;;;;;;;8.63;3.30;;;25.40;99.90;;;;;;5045402;28;20453;-54
2023/06/01 10:41:50;;;;;;;3.97;3.00;;;25.60;99.90;;;;;;5049360;28;20538;-55
2023/06/01 10:44:46;;;;;;;4.43;3.10;;;25.50;99.90;;;;;;5045386;28;20533;-53
2023/06/01 10:47:12;;;;;;;4.93;3.43;;;25.60;99.90;;;;;;5046967;28;20442;-53
2023/06/01 10:49:47;;;;;;;7.83;3.23;;;25.60;99.90;;;;;;5051856;28;20500;-54
2023/06/01 10:52:35;;;;;;;8.23;3.50;;;25.50;99.90;;;;;;5048492;28;20648;-54
2023/06/01 10:55:10;;;;;;;6.47;3.63;;;25.30;99.90;;;;;;5040424;28;20476;-53
2023/06/01 10:57:37;;;;;;;5.27;2.97;;;25.30;99.90;;;;;;5048078;28;20513;-53
2023/06/01 11:00:15;;;;;;;7.73;3.17;;;25.00;99.90;;;;;;5052640;28;20478;-54
2023/06/01 11:02:51;;;;;;;4.97;3.43;;;24.90;99.90;;;;;;5057686;28;20452;-55
2023/06/01 11:05:35;;;;;;;4.00;2.80;;;24.90;99.90;;;;;;5045853;28;20452;-53
2023/06/01 11:08:01;;;;;;;4.07;2.80;;;24.80;99.90;;;;;;5047933;28;20441;-53
2023/06/01 11:10:52;;;;;;;6.60;3.60;;;24.90;99.90;;;;;;5043938;28;20782;-55
2023/06/01 11:13:26;;;;;;;5.50;2.90;;;24.80;99.90;;;;;;5049279;28;20193;-56
2023/06/01 11:16:07;;;;;;;5.80;3.10;;;24.70;99.90;;;;;;5048702;28;21011;-53
2023/06/01 11:18:57;;;;;;;3.83;3.00;;;24.50;99.90;;;;;;5044501;28;20448;-55
2023/06/01 11:21:25;;;;;;;5.43;3.43;;;24.40;99.90;;;;;;5054670;28;20461;-55
2023/06/01 11:23:52;;;;;;;4.10;3.70;;;24.70;99.90;;;;;;5045585;28;20476;-52
2023/06/01 11:26:20;;;;;;;5.67;4.00;;;24.80;99.90;;;;;;5050111;28;20483;-53
2023/06/01 11:28:48;;;;;;;9.37;4.10;;;24.90;99.90;;;;;;5061078;28;20441;-56
2023/06/01 11:31:18;;;;;;;5.80;4.10;;;24.90;99.90;;;;;;5059809;28;20444;-54
2023/06/01 11:33:57;;;;;;;6.10;3.57;;;24.80;99.90;;;;;;5039919;28;20536;-56
2023/06/01 11:36:26;;;;;;;5.40;3.90;;;25.10;99.90;;;;;;5046943;28;20570;-55
2023/06/01 11:38:55;;;;;;;6.27;4.00;;;25.20;99.90;;;;;;5043855;28;20558;-55
2023/06/01 11:41:22;;;;;;;6.00;3.97;;;25.30;99.90;;;;;;5042274;28;20546;-54
2023/06/01 11:43:55;;;;;;;5.27;3.37;;;25.30;99.90;;;;;;5043285;28;21009;-54
2023/06/01 11:46:21;;;;;;;5.40;3.70;;;25.30;99.90;;;;;;5043503;28;20460;-54
2023/06/01 11:49:01;;;;;;;4.13;3.00;;;25.50;99.90;;;;;;5045691;28;20455;-54
2023/06/01 11:51:29;;;;;;;5.87;3.90;;;25.30;99.90;;;;;;5041414;28;20497;-54
2023/06/01 11:53:55;;;;;;;9.07;3.93;;;25.40;99.90;;;;;;5039831;28;20556;-53
2023/06/01 11:56:28;;;;;;;5.00;3.43;;;25.60;99.90;;;;;;5045566;28;20497;-54
2023/06/01 11:58:57;;;;;;;6.90;4.00;;;25.70;99.90;;;;;;5039340;28;20530;-52
2023/06/01 12:01:23;;;;;;;4.83;3.50;;;25.90;99.90;;;;;;5036770;28;20445;-56
2023/06/01 12:03:49;;;;;;;5.53;3.77;;;26.00;99.90;;;;;;5048302;28;21103;-54
2023/06/01 12:06:20;;;;;;;5.13;3.80;;;25.80;99.90;;;;;;5040869;28;20252;-54
2023/06/01 12:08:45;;;;;;;3.57;3.27;;;25.90;99.90;;;;;;5038786;28;20888;-53
2023/06/01 12:11:11;;;;;;;5.03;4.13;;;26.10;99.90;;;;;;5050678;28;20521;-55
2023/06/01 12:13:38;;;;;;;5.87;4.00;;;26.10;99.90;;;;;;5057904;28;20195;-53
2023/06/01 12:16:04;;;;;;;6.87;3.43;;;25.90;99.90;;;;;;5045752;28;20462;-53
2023/06/01 12:18:31;;;;;;;8.07;3.30;;;25.60;99.90;;;;;;5061457;28;20444;-54
2023/06/01 12:20:57;;;;;;;5.50;3.70;;;25.50;99.90;;;;;;5053118;28;20657;-54
2023/06/01 12:23:22;;;;;;;7.17;3.53;;;25.50;99.90;;;;;;5058039;28;20476;-55
2023/06/01 12:25:50;;;;;;;4.60;3.83;;;25.60;99.90;;;;;;5057779;28;20684;-52
2023/06/01 12:28:17;;;;;;;5.17;3.40;;;25.70;99.90;;;;;;5047228;28;20268;-52
2023/06/01 12:30:43;;;;;;;4.30;3.40;;;26.60;99.90;;;;;;5039949;28;20462;-53
2023/06/01 12:33:10;;;;;;;5.93;3.70;;;25.70;99.90;;;;;;5051348;28;20511;-55
2023/06/01 12:35:51;;;;;;;4.13;3.73;;;25.90;99.90;;;;;;5043823;28;20500;-54
2023/06/01 12:38:17;;;;;;;5.50;4.00;;;25.80;99.90;;;;;;5047853;28;20448;-52
2023/06/01 12:40:42;;;;;;;6.73;4.07;;;25.40;99.90;;;;;;5064806;28;20456;-53
2023/06/01 12:43:21;;;;;;;5.70;4.10;;;25.20;99.90;;;;;;5049268;28;20300;-54
2023/06/01 12:46:05;;;;;;;5.37;4.07;;;25.30;99.90;;;;;;5043427;28;20548;-55
2023/06/01 12:48:37;;;;;;;5.87;4.50;;;23.90;99.90;;;;;;5052042;28;20450;-53
2023/06/01 12:51:04;;;;;;;5.50;4.50;;;25.10;99.90;;;;;;5045893;28;20446;-54
2023/06/01 12:53:30;;;;;;;7.47;4.33;;;25.30;99.90;;;;;;5055360;28;20462;-53